sensor_id;sensor_type;location;lat;lon;timestamp;temperature;humidity
6307;DHT22;3186;54.062;9.962;2023-02-15T00:01:33;2.90;99.90
6307;DHT22;3186;54.062;9.962;2023-02-15T00:03:59;2.90;99.90
6307;DHT22;3186;54.062;9.962;2023-02-15T00:06:25;2.90;99.90
6307;DHT22;3186;54.062;9.962;2023-02-15T00:08:51;2.90;99.90
6307;DHT22;3186;54.062;9.962;2023-02-15T00:11:18;2.90;99.90
6307;DHT22;3186;54.062;9.962;2023-02-15T00:16:45;2.80;99.90
6307;DHT22;3186;54.062;9.962;2023-02-15T00:19:13;2.80;99.90
6307;DHT22;3186;54.062;9.962;2023-02-15T00:21:40;3.50;99.90
6307;DHT22;3186;54.062;9.962;2023-02-15T00:24:08;2.80;99.90
6307;DHT22;3186;54.062;9.962;2023-02-15T00:26:34;2.80;99.90
6307;DHT22;3186;54.062;9.962;2023-02-15T00:29:01;2.80;99.90
6307;DHT22;3186;54.062;9.962;2023-02-15T00:31:28;2.70;99.90
6307;DHT22;3186;54.062;9.962;2023-02-15T00:34:00;2.70;99.90
6307;DHT22;3186;54.062;9.962;2023-02-15T00:36:26;2.70;99.90
6307;DHT22;3186;54.062;9.962;2023-02-15T00:38:52;2.50;99.90
6307;DHT22;3186;54.062;9.962;2023-02-15T00:41:18;2.70;99.90
6307;DHT22;3186;54.062;9.962;2023-02-15T00:43:44;2.70;99.90
6307;DHT22;3186;54.062;9.962;2023-02-15T00:46:09;2.70;99.90
6307;DHT22;3186;54.062;9.962;2023-02-15T00:48:35;2.60;99.90
6307;DHT22;3186;54.062;9.962;2023-02-15T00:51:03;2.60;99.90
6307;DHT22;3186;54.062;9.962;2023-02-15T00:53:29;2.60;99.90
6307;DHT22;3186;54.062;9.962;2023-02-15T00:55:56;2.60;99.90
6307;DHT22;3186;54.062;9.962;2023-02-15T00:58:22;2.60;99.90
6307;DHT22;3186;54.062;9.962;2023-02-15T01:00:48;2.60;99.90
6307;DHT22;3186;54.062;9.962;2023-02-15T01:03:16;2.60;99.90
6307;DHT22;3186;54.062;9.962;2023-02-15T01:05:42;2.60;99.90
6307;DHT22;3186;54.062;9.962;2023-02-15T01:08:08;2.50;99.90
6307;DHT22;3186;54.062;9.962;2023-02-15T01:10:36;2.50;99.90
6307;DHT22;3186;54.062;9.962;2023-02-15T01:13:03;3.50;99.90
6307;DHT22;3186;54.062;9.962;2023-02-15T01:15:28;2.50;99.90
6307;DHT22;3186;54.062;9.962;2023-02-15T01:17:55;2.60;99.90
6307;DHT22;3186;54.062;9.962;2023-02-15T01:20:23;2.50;99.90
6307;DHT22;3186;54.062;9.962;2023-02-15T01:22:49;2.50;99.90
6307;DHT22;3186;54.062;9.962;2023-02-15T01:25:16;2.50;99.90
6307;DHT22;3186;54.062;9.962;2023-02-15T01:27:42;2.50;99.90
6307;DHT22;3186;54.062;9.962;2023-02-15T01:30:09;2.50;99.90
6307;DHT22;3186;54.062;9.962;2023-02-15T01:32:35;2.50;99.90
6307;DHT22;3186;54.062;9.962;2023-02-15T01:35:01;2.50;99.90
6307;DHT22;3186;54.062;9.962;2023-02-15T01:37:27;2.50;99.90
6307;DHT22;3186;54.062;9.962;2023-02-15T01:39:55;2.50;99.90
6307;DHT22;3186;54.062;9.962;2023-02-15T01:42:24;2.50;99.90
6307;DHT22;3186;54.062;9.962;2023-02-15T01:44:55;2.50;99.90
6307;DHT22;3186;54.062;9.962;2023-02-15T01:47:41;2.50;99.90
6307;DHT22;3186;54.062;9.962;2023-02-15T01:55:19;4.10;99.90
6307;DHT22;3186;54.062;9.962;2023-02-15T01:57:49;2.50;99.90
6307;DHT22;3186;54.062;9.962;2023-02-15T02:00:16;2.50;99.90
6307;DHT22;3186;54.062;9.962;2023-02-15T02:02:48;2.60;99.90
6307;DHT22;3186;54.062;9.962;2023-02-15T02:05:16;2.60;99.90
6307;DHT22;3186;54.062;9.962;2023-02-15T02:07:44;2.60;99.90
6307;DHT22;3186;54.062;9.962;2023-02-15T02:10:14;2.60;99.90
6307;DHT22;3186;54.062;9.962;2023-02-15T02:12:43;2.60;99.90
6307;DHT22;3186;54.062;9.962;2023-02-15T02:15:09;2.60;99.90
6307;DHT22;3186;54.062;9.962;2023-02-15T02:34:22;2.60;99.90
6307;DHT22;3186;54.062;9.962;2023-02-15T02:42:40;2.70;99.90
6307;DHT22;3186;54.062;9.962;2023-02-15T02:45:10;2.70;99.90
6307;DHT22;3186;54.062;9.962;2023-02-15T02:50:07;2.70;99.90
6307;DHT22;3186;54.062;9.962;2023-02-15T02:52:44;2.70;99.90
6307;DHT22;3186;54.062;9.962;2023-02-15T02:55:24;2.70;99.90
6307;DHT22;3186;54.062;9.962;2023-02-15T03:06:12;2.60;99.90
6307;DHT22;3186;54.062;9.962;2023-02-15T03:08:48;2.70;99.90
6307;DHT22;3186;54.062;9.962;2023-02-15T03:11:15;2.70;99.90
6307;DHT22;3186;54.062;9.962;2023-02-15T03:13:43;2.70;99.90
6307;DHT22;3186;54.062;9.962;2023-02-15T03:16:10;2.70;99.90
6307;DHT22;3186;54.062;9.962;2023-02-15T03:19:01;2.70;99.90
6307;DHT22;3186;54.062;9.962;2023-02-15T03:21:44;2.70;99.90
6307;DHT22;3186;54.062;9.962;2023-02-15T03:24:21;2.60;99.90
6307;DHT22;3186;54.062;9.962;2023-02-15T03:26:50;2.50;99.90
6307;DHT22;3186;54.062;9.962;2023-02-15T03:29:20;2.60;99.90
6307;DHT22;3186;54.062;9.962;2023-02-15T03:31:54;2.60;99.90
6307;DHT22;3186;54.062;9.962;2023-02-15T03:34:22;2.70;99.90
6307;DHT22;3186;54.062;9.962;2023-02-15T03:39:59;2.70;99.90
6307;DHT22;3186;54.062;9.962;2023-02-15T03:45:36;2.80;99.90
6307;DHT22;3186;54.062;9.962;2023-02-15T03:48:04;2.80;99.90
6307;DHT22;3186;54.062;9.962;2023-02-15T03:50:32;2.70;99.90
6307;DHT22;3186;54.062;9.962;2023-02-15T03:53:20;2.70;99.90
6307;DHT22;3186;54.062;9.962;2023-02-15T03:55:52;2.80;99.90
6307;DHT22;3186;54.062;9.962;2023-02-15T03:58:18;2.80;99.90
6307;DHT22;3186;54.062;9.962;2023-02-15T04:01:27;2.80;99.90
6307;DHT22;3186;54.062;9.962;2023-02-15T04:04:21;2.80;99.90
6307;DHT22;3186;54.062;9.962;2023-02-15T04:06:47;2.80;99.90
6307;DHT22;3186;54.062;9.962;2023-02-15T04:09:13;2.80;99.90
6307;DHT22;3186;54.062;9.962;2023-02-15T04:11:58;2.80;99.90
6307;DHT22;3186;54.062;9.962;2023-02-15T04:14:24;2.80;99.90
6307;DHT22;3186;54.062;9.962;2023-02-15T04:17:09;2.80;99.90
6307;DHT22;3186;54.062;9.962;2023-02-15T04:19:35;2.80;99.90
6307;DHT22;3186;54.062;9.962;2023-02-15T04:22:19;2.80;99.90
6307;DHT22;3186;54.062;9.962;2023-02-15T04:25:04;2.70;99.90
6307;DHT22;3186;54.062;9.962;2023-02-15T04:27:38;2.80;99.90
6307;DHT22;3186;54.062;9.962;2023-02-15T04:30:05;2.80;99.90
6307;DHT22;3186;54.062;9.962;2023-02-15T04:32:31;2.80;99.90
6307;DHT22;3186;54.062;9.962;2023-02-15T04:34:57;2.80;99.90
6307;DHT22;3186;54.062;9.962;2023-02-15T04:37:22;2.80;99.90
6307;DHT22;3186;54.062;9.962;2023-02-15T04:39:48;2.80;99.90
6307;DHT22;3186;54.062;9.962;2023-02-15T04:42:15;2.90;99.90
6307;DHT22;3186;54.062;9.962;2023-02-15T04:44:41;2.90;99.90
6307;DHT22;3186;54.062;9.962;2023-02-15T04:47:07;2.90;99.90
6307;DHT22;3186;54.062;9.962;2023-02-15T04:49:33;2.80;99.90
6307;DHT22;3186;54.062;9.962;2023-02-15T04:51:59;2.90;99.90
6307;DHT22;3186;54.062;9.962;2023-02-15T04:54:24;2.90;99.90
6307;DHT22;3186;54.062;9.962;2023-02-15T04:56:50;2.90;99.90
6307;DHT22;3186;54.062;9.962;2023-02-15T04:59:16;2.90;99.90
6307;DHT22;3186;54.062;9.962;2023-02-15T05:01:42;2.90;99.90
6307;DHT22;3186;54.062;9.962;2023-02-15T05:04:08;2.90;99.90
6307;DHT22;3186;54.062;9.962;2023-02-15T05:06:34;2.90;99.90
6307;DHT22;3186;54.062;9.962;2023-02-15T05:09:00;2.90;99.90
6307;DHT22;3186;54.062;9.962;2023-02-15T05:11:27;2.90;99.90
6307;DHT22;3186;54.062;9.962;2023-02-15T05:13:53;2.90;99.90
6307;DHT22;3186;54.062;9.962;2023-02-15T05:16:18;2.90;99.90
6307;DHT22;3186;54.062;9.962;2023-02-15T05:18:44;2.90;99.90
6307;DHT22;3186;54.062;9.962;2023-02-15T05:21:10;2.90;99.90
6307;DHT22;3186;54.062;9.962;2023-02-15T05:23:36;2.90;99.90
6307;DHT22;3186;54.062;9.962;2023-02-15T05:26:02;2.90;99.90
6307;DHT22;3186;54.062;9.962;2023-02-15T05:28:46;2.90;99.90
6307;DHT22;3186;54.062;9.962;2023-02-15T05:31:14;2.90;99.90
6307;DHT22;3186;54.062;9.962;2023-02-15T05:33:40;3.00;99.90
6307;DHT22;3186;54.062;9.962;2023-02-15T05:36:07;2.90;99.90
6307;DHT22;3186;54.062;9.962;2023-02-15T05:38:33;3.00;99.90
6307;DHT22;3186;54.062;9.962;2023-02-15T05:41:00;3.00;99.90
6307;DHT22;3186;54.062;9.962;2023-02-15T05:43:26;2.90;99.90
6307;DHT22;3186;54.062;9.962;2023-02-15T05:45:53;3.10;99.90
6307;DHT22;3186;54.062;9.962;2023-02-15T05:48:22;3.00;99.90
6307;DHT22;3186;54.062;9.962;2023-02-15T05:53:28;3.00;99.90
6307;DHT22;3186;54.062;9.962;2023-02-15T05:55:54;3.00;99.90
6307;DHT22;3186;54.062;9.962;2023-02-15T05:58:28;3.00;99.90
6307;DHT22;3186;54.062;9.962;2023-02-15T06:00:55;3.00;99.90
6307;DHT22;3186;54.062;9.962;2023-02-15T06:03:21;3.10;99.90
6307;DHT22;3186;54.062;9.962;2023-02-15T06:05:48;3.00;99.90
6307;DHT22;3186;54.062;9.962;2023-02-15T06:08:14;3.00;99.90
6307;DHT22;3186;54.062;9.962;2023-02-15T06:10:40;3.00;99.90
6307;DHT22;3186;54.062;9.962;2023-02-15T06:13:06;3.10;99.90
6307;DHT22;3186;54.062;9.962;2023-02-15T06:15:31;3.10;99.90
6307;DHT22;3186;54.062;9.962;2023-02-15T06:17:58;3.00;99.90
6307;DHT22;3186;54.062;9.962;2023-02-15T06:20:24;3.00;99.90
6307;DHT22;3186;54.062;9.962;2023-02-15T06:22:49;3.00;99.90
6307;DHT22;3186;54.062;9.962;2023-02-15T06:25:16;3.00;99.90
6307;DHT22;3186;54.062;9.962;2023-02-15T06:27:42;3.10;99.90
6307;DHT22;3186;54.062;9.962;2023-02-15T06:30:09;3.10;99.90
6307;DHT22;3186;54.062;9.962;2023-02-15T06:32:35;3.10;99.90
6307;DHT22;3186;54.062;9.962;2023-02-15T06:35:02;3.10;99.90
6307;DHT22;3186;54.062;9.962;2023-02-15T06:37:28;3.10;99.90
6307;DHT22;3186;54.062;9.962;2023-02-15T06:39:54;3.10;99.90
6307;DHT22;3186;54.062;9.962;2023-02-15T06:42:21;3.10;99.90
6307;DHT22;3186;54.062;9.962;2023-02-15T06:44:47;3.10;99.90
6307;DHT22;3186;54.062;9.962;2023-02-15T06:47:13;3.10;99.90
6307;DHT22;3186;54.062;9.962;2023-02-15T06:49:39;3.20;99.90
6307;DHT22;3186;54.062;9.962;2023-02-15T06:52:05;3.20;99.90
6307;DHT22;3186;54.062;9.962;2023-02-15T06:54:31;3.20;99.90
6307;DHT22;3186;54.062;9.962;2023-02-15T06:56:56;3.20;99.90
6307;DHT22;3186;54.062;9.962;2023-02-15T06:59:22;3.20;99.90
6307;DHT22;3186;54.062;9.962;2023-02-15T07:01:48;3.20;99.90
6307;DHT22;3186;54.062;9.962;2023-02-15T07:04:16;3.20;99.90
6307;DHT22;3186;54.062;9.962;2023-02-15T07:06:42;3.20;99.90
6307;DHT22;3186;54.062;9.962;2023-02-15T07:09:09;3.30;99.90
6307;DHT22;3186;54.062;9.962;2023-02-15T07:11:34;3.20;99.90
6307;DHT22;3186;54.062;9.962;2023-02-15T07:14:19;3.20;99.90
6307;DHT22;3186;54.062;9.962;2023-02-15T07:16:45;3.20;99.90
6307;DHT22;3186;54.062;9.962;2023-02-15T07:19:10;3.20;99.90
6307;DHT22;3186;54.062;9.962;2023-02-15T07:21:36;3.20;99.90
6307;DHT22;3186;54.062;9.962;2023-02-15T07:24:03;3.20;99.90
6307;DHT22;3186;54.062;9.962;2023-02-15T07:26:31;3.30;99.90
6307;DHT22;3186;54.062;9.962;2023-02-15T07:28:57;3.20;99.90
6307;DHT22;3186;54.062;9.962;2023-02-15T07:31:23;3.20;99.90
6307;DHT22;3186;54.062;9.962;2023-02-15T07:33:49;3.20;99.90
6307;DHT22;3186;54.062;9.962;2023-02-15T07:36:15;3.30;99.90
6307;DHT22;3186;54.062;9.962;2023-02-15T07:38:41;3.30;99.90
6307;DHT22;3186;54.062;9.962;2023-02-15T07:41:10;3.40;99.90
6307;DHT22;3186;54.062;9.962;2023-02-15T07:43:39;3.30;99.90
6307;DHT22;3186;54.062;9.962;2023-02-15T07:46:12;3.30;99.90
6307;DHT22;3186;54.062;9.962;2023-02-15T07:48:39;3.40;99.90
6307;DHT22;3186;54.062;9.962;2023-02-15T07:51:07;3.30;99.90
6307;DHT22;3186;54.062;9.962;2023-02-15T07:53:33;3.40;99.90
6307;DHT22;3186;54.062;9.962;2023-02-15T07:56:00;3.40;99.90
6307;DHT22;3186;54.062;9.962;2023-02-15T07:58:26;3.40;99.90
6307;DHT22;3186;54.062;9.962;2023-02-15T08:01:12;3.40;99.90
6307;DHT22;3186;54.062;9.962;2023-02-15T08:03:38;3.40;99.90
6307;DHT22;3186;54.062;9.962;2023-02-15T08:06:04;3.40;99.90
6307;DHT22;3186;54.062;9.962;2023-02-15T08:08:30;3.40;99.90
6307;DHT22;3186;54.062;9.962;2023-02-15T08:13:57;3.50;99.90
6307;DHT22;3186;54.062;9.962;2023-02-15T08:16:48;3.50;99.90
6307;DHT22;3186;54.062;9.962;2023-02-15T08:19:19;3.50;99.90
6307;DHT22;3186;54.062;9.962;2023-02-15T08:21:55;3.50;99.90
6307;DHT22;3186;54.062;9.962;2023-02-15T08:24:23;3.50;99.90
6307;DHT22;3186;54.062;9.962;2023-02-15T08:26:51;3.60;99.90
6307;DHT22;3186;54.062;9.962;2023-02-15T08:29:19;3.50;99.90
6307;DHT22;3186;54.062;9.962;2023-02-15T08:31:45;3.60;99.90
6307;DHT22;3186;54.062;9.962;2023-02-15T08:34:15;3.60;99.90
6307;DHT22;3186;54.062;9.962;2023-02-15T08:36:41;3.60;99.90
6307;DHT22;3186;54.062;9.962;2023-02-15T08:39:07;3.60;99.90
6307;DHT22;3186;54.062;9.962;2023-02-15T08:41:34;3.60;99.90
6307;DHT22;3186;54.062;9.962;2023-02-15T08:44:06;3.70;99.90
6307;DHT22;3186;54.062;9.962;2023-02-15T08:46:34;3.70;99.90
6307;DHT22;3186;54.062;9.962;2023-02-15T08:49:01;3.70;99.90
6307;DHT22;3186;54.062;9.962;2023-02-15T08:51:32;3.70;99.90
6307;DHT22;3186;54.062;9.962;2023-02-15T08:54:01;3.80;99.90
6307;DHT22;3186;54.062;9.962;2023-02-15T08:56:29;3.80;99.90
6307;DHT22;3186;54.062;9.962;2023-02-15T08:58:56;3.80;99.90
6307;DHT22;3186;54.062;9.962;2023-02-15T09:01:28;3.70;99.90
6307;DHT22;3186;54.062;9.962;2023-02-15T09:03:59;3.80;99.90
6307;DHT22;3186;54.062;9.962;2023-02-15T09:06:26;3.80;99.90
6307;DHT22;3186;54.062;9.962;2023-02-15T09:08:52;3.90;99.90
6307;DHT22;3186;54.062;9.962;2023-02-15T09:11:23;3.90;99.90
6307;DHT22;3186;54.062;9.962;2023-02-15T09:13:56;3.90;99.90
6307;DHT22;3186;54.062;9.962;2023-02-15T09:16:24;3.90;99.90
6307;DHT22;3186;54.062;9.962;2023-02-15T09:18:51;4.00;99.90
6307;DHT22;3186;54.062;9.962;2023-02-15T09:21:20;4.00;99.90
6307;DHT22;3186;54.062;9.962;2023-02-15T09:23:48;4.00;99.90
6307;DHT22;3186;54.062;9.962;2023-02-15T09:26:18;4.00;99.90
6307;DHT22;3186;54.062;9.962;2023-02-15T09:28:44;4.10;99.90
6307;DHT22;3186;54.062;9.962;2023-02-15T09:31:13;4.00;99.90
6307;DHT22;3186;54.062;9.962;2023-02-15T09:33:41;4.10;99.90
6307;DHT22;3186;54.062;9.962;2023-02-15T09:36:26;4.10;99.90
6307;DHT22;3186;54.062;9.962;2023-02-15T09:39:37;4.20;99.90
6307;DHT22;3186;54.062;9.962;2023-02-15T10:06:44;4.40;99.90
6307;DHT22;3186;54.062;9.962;2023-02-15T10:12:32;4.40;99.90
6307;DHT22;3186;54.062;9.962;2023-02-15T10:15:23;4.50;99.90
6307;DHT22;3186;54.062;9.962;2023-02-15T10:23:48;4.50;99.90
6307;DHT22;3186;54.062;9.962;2023-02-15T10:26:31;4.60;99.90
6307;DHT22;3186;54.062;9.962;2023-02-15T10:29:06;4.60;99.90
6307;DHT22;3186;54.062;9.962;2023-02-15T10:34:14;4.60;99.90
6307;DHT22;3186;54.062;9.962;2023-02-15T10:40:07;4.80;99.90
6307;DHT22;3186;54.062;9.962;2023-02-15T10:45:48;4.80;99.90
6307;DHT22;3186;54.062;9.962;2023-02-15T10:50:58;4.90;99.90
6307;DHT22;3186;54.062;9.962;2023-02-15T10:53:28;4.90;99.90
6307;DHT22;3186;54.062;9.962;2023-02-15T10:58:51;5.00;99.90
6307;DHT22;3186;54.062;9.962;2023-02-15T11:06:18;5.20;99.90
6307;DHT22;3186;54.062;9.962;2023-02-15T11:09:00;5.10;99.90
6307;DHT22;3186;54.062;9.962;2023-02-15T11:11:38;5.10;99.90
6307;DHT22;3186;54.062;9.962;2023-02-15T11:14:21;5.10;99.90
6307;DHT22;3186;54.062;9.962;2023-02-15T11:16:55;5.10;99.90
6307;DHT22;3186;54.062;9.962;2023-02-15T11:19:31;5.10;99.90
6307;DHT22;3186;54.062;9.962;2023-02-15T11:21:59;5.20;99.90
6307;DHT22;3186;54.062;9.962;2023-02-15T11:24:29;5.30;99.90
6307;DHT22;3186;54.062;9.962;2023-02-15T11:27:30;5.40;99.90
6307;DHT22;3186;54.062;9.962;2023-02-15T11:30:09;5.40;99.90
6307;DHT22;3186;54.062;9.962;2023-02-15T11:32:39;5.30;99.90
6307;DHT22;3186;54.062;9.962;2023-02-15T11:40:23;5.50;99.90
6307;DHT22;3186;54.062;9.962;2023-02-15T11:42:53;5.50;99.90
6307;DHT22;3186;54.062;9.962;2023-02-15T11:45:26;5.40;99.90
6307;DHT22;3186;54.062;9.962;2023-02-15T11:47:53;5.40;99.90
6307;DHT22;3186;54.062;9.962;2023-02-15T11:50:26;5.60;99.90
6307;DHT22;3186;54.062;9.962;2023-02-15T11:52:54;5.50;99.90
6307;DHT22;3186;54.062;9.962;2023-02-15T11:55:23;5.60;99.90
6307;DHT22;3186;54.062;9.962;2023-02-15T12:01:13;5.50;99.90
6307;DHT22;3186;54.062;9.962;2023-02-15T12:06:53;5.80;99.90
6307;DHT22;3186;54.062;9.962;2023-02-15T12:12:21;5.70;99.90
6307;DHT22;3186;54.062;9.962;2023-02-15T12:14:53;5.60;99.90
6307;DHT22;3186;54.062;9.962;2023-02-15T12:17:52;5.60;99.90
6307;DHT22;3186;54.062;9.962;2023-02-15T12:22:52;5.60;99.90
6307;DHT22;3186;54.062;9.962;2023-02-15T12:27:51;5.80;99.90
6307;DHT22;3186;54.062;9.962;2023-02-15T12:30:26;5.70;99.90
6307;DHT22;3186;54.062;9.962;2023-02-15T12:32:59;5.80;99.90
6307;DHT22;3186;54.062;9.962;2023-02-15T12:35:33;5.80;99.90
6307;DHT22;3186;54.062;9.962;2023-02-15T12:38:05;5.90;99.90
6307;DHT22;3186;54.062;9.962;2023-02-15T12:40:35;5.90;99.90
6307;DHT22;3186;54.062;9.962;2023-02-15T12:43:01;6.10;99.90
6307;DHT22;3186;54.062;9.962;2023-02-15T12:45:36;6.20;99.90
6307;DHT22;3186;54.062;9.962;2023-02-15T12:48:19;6.20;99.90
6307;DHT22;3186;54.062;9.962;2023-02-15T12:50:50;6.20;99.90
6307;DHT22;3186;54.062;9.962;2023-02-15T12:53:20;6.20;99.90
6307;DHT22;3186;54.062;9.962;2023-02-15T12:55:57;6.10;99.90
6307;DHT22;3186;54.062;9.962;2023-02-15T12:58:42;6.30;99.90
6307;DHT22;3186;54.062;9.962;2023-02-15T13:01:16;6.20;99.90
6307;DHT22;3186;54.062;9.962;2023-02-15T13:04:03;6.20;99.90
6307;DHT22;3186;54.062;9.962;2023-02-15T13:06:33;6.30;99.90
6307;DHT22;3186;54.062;9.962;2023-02-15T13:09:23;6.30;99.90
6307;DHT22;3186;54.062;9.962;2023-02-15T13:11:51;6.30;99.90
6307;DHT22;3186;54.062;9.962;2023-02-15T13:14:20;6.30;99.90
6307;DHT22;3186;54.062;9.962;2023-02-15T13:16:50;6.30;99.90
6307;DHT22;3186;54.062;9.962;2023-02-15T13:19:23;6.40;99.90
6307;DHT22;3186;54.062;9.962;2023-02-15T13:21:53;6.20;99.90
6307;DHT22;3186;54.062;9.962;2023-02-15T13:24:36;6.30;99.90
6307;DHT22;3186;54.062;9.962;2023-02-15T13:27:03;6.20;99.90
6307;DHT22;3186;54.062;9.962;2023-02-15T13:29:33;6.30;99.90
6307;DHT22;3186;54.062;9.962;2023-02-15T13:32:27;6.10;99.90
6307;DHT22;3186;54.062;9.962;2023-02-15T13:35:00;6.20;99.90
6307;DHT22;3186;54.062;9.962;2023-02-15T13:43:20;6.40;99.90
6307;DHT22;3186;54.062;9.962;2023-02-15T13:46:09;6.50;99.90
6307;DHT22;3186;54.062;9.962;2023-02-15T14:13:43;6.70;99.90
6307;DHT22;3186;54.062;9.962;2023-02-15T14:21:54;6.70;99.90
6307;DHT22;3186;54.062;9.962;2023-02-15T14:30:03;6.90;99.90
6307;DHT22;3186;54.062;9.962;2023-02-15T14:35:12;6.90;99.90
6307;DHT22;3186;54.062;9.962;2023-02-15T14:48:51;6.90;99.90
6307;DHT22;3186;54.062;9.962;2023-02-15T14:59:57;6.90;99.90
6307;DHT22;3186;54.062;9.962;2023-02-15T15:02:40;6.80;99.90
6307;DHT22;3186;54.062;9.962;2023-02-15T15:05:10;6.80;99.90
6307;DHT22;3186;54.062;9.962;2023-02-15T15:15:44;6.90;99.90
6307;DHT22;3186;54.062;9.962;2023-02-15T15:18:46;6.90;99.90
6307;DHT22;3186;54.062;9.962;2023-02-15T15:43:54;6.60;99.90
6307;DHT22;3186;54.062;9.962;2023-02-15T15:49:20;6.70;99.90
6307;DHT22;3186;54.062;9.962;2023-02-15T15:51:47;6.70;99.90
6307;DHT22;3186;54.062;9.962;2023-02-15T15:54:22;6.70;99.90
6307;DHT22;3186;54.062;9.962;2023-02-15T15:56:53;6.70;99.90
6307;DHT22;3186;54.062;9.962;2023-02-15T15:59:24;6.70;99.90
6307;DHT22;3186;54.062;9.962;2023-02-15T16:01:50;6.60;99.90
6307;DHT22;3186;54.062;9.962;2023-02-15T16:04:28;6.40;99.90
6307;DHT22;3186;54.062;9.962;2023-02-15T16:07:05;6.30;99.90
6307;DHT22;3186;54.062;9.962;2023-02-15T16:09:38;6.40;99.90
6307;DHT22;3186;54.062;9.962;2023-02-15T16:12:13;6.50;99.90
6307;DHT22;3186;54.062;9.962;2023-02-15T16:14:41;6.50;99.90
6307;DHT22;3186;54.062;9.962;2023-02-15T16:17:23;6.50;99.90
6307;DHT22;3186;54.062;9.962;2023-02-15T16:19:51;6.50;99.90
6307;DHT22;3186;54.062;9.962;2023-02-15T16:22:25;6.50;99.90
6307;DHT22;3186;54.062;9.962;2023-02-15T16:27:47;6.40;99.90
6307;DHT22;3186;54.062;9.962;2023-02-15T16:30:32;6.50;99.90
6307;DHT22;3186;54.062;9.962;2023-02-15T16:33:16;6.40;99.90
6307;DHT22;3186;54.062;9.962;2023-02-15T16:35:56;6.40;99.90
6307;DHT22;3186;54.062;9.962;2023-02-15T16:41:08;6.50;99.90
6307;DHT22;3186;54.062;9.962;2023-02-15T16:43:37;6.50;99.90
6307;DHT22;3186;54.062;9.962;2023-02-15T16:46:11;6.50;99.90
6307;DHT22;3186;54.062;9.962;2023-02-15T16:48:41;6.40;99.90
6307;DHT22;3186;54.062;9.962;2023-02-15T16:51:09;6.40;99.90
6307;DHT22;3186;54.062;9.962;2023-02-15T16:53:36;6.40;99.90
6307;DHT22;3186;54.062;9.962;2023-02-15T16:56:04;6.50;99.90
6307;DHT22;3186;54.062;9.962;2023-02-15T16:58:44;6.40;99.90
6307;DHT22;3186;54.062;9.962;2023-02-15T17:01:14;6.40;99.90
6307;DHT22;3186;54.062;9.962;2023-02-15T17:03:41;6.40;99.90
6307;DHT22;3186;54.062;9.962;2023-02-15T17:06:23;6.40;99.90
6307;DHT22;3186;54.062;9.962;2023-02-15T17:08:49;6.40;99.90
6307;DHT22;3186;54.062;9.962;2023-02-15T17:19:15;6.40;99.90
6307;DHT22;3186;54.062;9.962;2023-02-15T17:22:02;6.30;99.90
6307;DHT22;3186;54.062;9.962;2023-02-15T17:24:42;6.20;99.90
6307;DHT22;3186;54.062;9.962;2023-02-15T17:27:28;6.30;99.90
6307;DHT22;3186;54.062;9.962;2023-02-15T17:30:15;6.20;99.90
6307;DHT22;3186;54.062;9.962;2023-02-15T17:33:03;6.20;99.90
6307;DHT22;3186;54.062;9.962;2023-02-15T17:35:30;6.20;99.90
6307;DHT22;3186;54.062;9.962;2023-02-15T17:38:06;6.20;99.90
6307;DHT22;3186;54.062;9.962;2023-02-15T17:40:35;6.20;99.90
6307;DHT22;3186;54.062;9.962;2023-02-15T17:43:01;6.20;99.90
6307;DHT22;3186;54.062;9.962;2023-02-15T17:45:44;6.20;99.90
6307;DHT22;3186;54.062;9.962;2023-02-15T17:48:23;6.20;99.90
6307;DHT22;3186;54.062;9.962;2023-02-15T17:50:50;6.30;99.90
6307;DHT22;3186;54.062;9.962;2023-02-15T17:53:17;6.10;99.90
6307;DHT22;3186;54.062;9.962;2023-02-15T17:55:44;6.10;99.90
6307;DHT22;3186;54.062;9.962;2023-02-15T17:58:15;6.00;99.90
6307;DHT22;3186;54.062;9.962;2023-02-15T18:00:43;5.80;99.90
6307;DHT22;3186;54.062;9.962;2023-02-15T18:06:21;5.90;99.90
6307;DHT22;3186;54.062;9.962;2023-02-15T18:09:16;6.00;99.90
6307;DHT22;3186;54.062;9.962;2023-02-15T18:12:01;6.00;99.90
6307;DHT22;3186;54.062;9.962;2023-02-15T18:14:27;6.00;99.90
6307;DHT22;3186;54.062;9.962;2023-02-15T18:16:56;6.00;99.90
6307;DHT22;3186;54.062;9.962;2023-02-15T18:19:24;6.00;99.90
6307;DHT22;3186;54.062;9.962;2023-02-15T18:21:51;6.00;99.90
6307;DHT22;3186;54.062;9.962;2023-02-15T18:24:22;6.00;99.90
6307;DHT22;3186;54.062;9.962;2023-02-15T18:26:49;6.10;99.90
6307;DHT22;3186;54.062;9.962;2023-02-15T18:29:15;6.00;99.90
6307;DHT22;3186;54.062;9.962;2023-02-15T18:31:43;5.90;99.90
6307;DHT22;3186;54.062;9.962;2023-02-15T18:34:21;5.90;99.90
6307;DHT22;3186;54.062;9.962;2023-02-15T18:36:48;5.90;99.90
6307;DHT22;3186;54.062;9.962;2023-02-15T18:39:36;5.90;99.90
6307;DHT22;3186;54.062;9.962;2023-02-15T18:42:03;6.00;99.90
6307;DHT22;3186;54.062;9.962;2023-02-15T18:44:29;6.00;99.90
6307;DHT22;3186;54.062;9.962;2023-02-15T18:46:55;5.90;99.90
6307;DHT22;3186;54.062;9.962;2023-02-15T18:49:21;5.90;99.90
6307;DHT22;3186;54.062;9.962;2023-02-15T18:51:47;6.00;99.90
6307;DHT22;3186;54.062;9.962;2023-02-15T18:54:21;6.00;99.90
6307;DHT22;3186;54.062;9.962;2023-02-15T18:56:58;6.00;99.90
6307;DHT22;3186;54.062;9.962;2023-02-15T18:59:26;6.00;99.90
6307;DHT22;3186;54.062;9.962;2023-02-15T19:01:53;5.90;99.90
6307;DHT22;3186;54.062;9.962;2023-02-15T19:04:20;5.90;99.90
6307;DHT22;3186;54.062;9.962;2023-02-15T19:06:47;6.00;99.90
6307;DHT22;3186;54.062;9.962;2023-02-15T19:09:22;5.90;99.90
6307;DHT22;3186;54.062;9.962;2023-02-15T19:11:51;5.90;99.90
6307;DHT22;3186;54.062;9.962;2023-02-15T19:14:29;5.90;99.90
6307;DHT22;3186;54.062;9.962;2023-02-15T19:16:56;5.90;99.90
6307;DHT22;3186;54.062;9.962;2023-02-15T19:19:22;5.90;99.90
6307;DHT22;3186;54.062;9.962;2023-02-15T19:21:49;5.90;99.90
6307;DHT22;3186;54.062;9.962;2023-02-15T19:24:19;5.90;99.90
6307;DHT22;3186;54.062;9.962;2023-02-15T19:26:46;5.90;99.90
6307;DHT22;3186;54.062;9.962;2023-02-15T19:29:14;5.80;99.90
6307;DHT22;3186;54.062;9.962;2023-02-15T19:31:41;5.80;99.90
6307;DHT22;3186;54.062;9.962;2023-02-15T19:34:16;5.80;99.90
6307;DHT22;3186;54.062;9.962;2023-02-15T19:36:43;5.80;99.90
6307;DHT22;3186;54.062;9.962;2023-02-15T19:39:27;5.80;99.90
6307;DHT22;3186;54.062;9.962;2023-02-15T19:41:55;5.80;99.90
6307;DHT22;3186;54.062;9.962;2023-02-15T19:44:21;5.80;99.90
6307;DHT22;3186;54.062;9.962;2023-02-15T19:46:47;5.80;99.90
6307;DHT22;3186;54.062;9.962;2023-02-15T19:49:13;5.80;99.90
6307;DHT22;3186;54.062;9.962;2023-02-15T19:51:39;5.70;99.90
6307;DHT22;3186;54.062;9.962;2023-02-15T19:54:29;5.70;99.90
6307;DHT22;3186;54.062;9.962;2023-02-15T19:56:56;5.80;99.90
6307;DHT22;3186;54.062;9.962;2023-02-15T19:59:28;5.70;99.90
6307;DHT22;3186;54.062;9.962;2023-02-15T20:01:55;5.70;99.90
6307;DHT22;3186;54.062;9.962;2023-02-15T20:04:21;5.70;99.90
6307;DHT22;3186;54.062;9.962;2023-02-15T20:06:48;5.70;99.90
6307;DHT22;3186;54.062;9.962;2023-02-15T20:09:32;5.70;99.90
6307;DHT22;3186;54.062;9.962;2023-02-15T20:12:00;5.90;99.90
6307;DHT22;3186;54.062;9.962;2023-02-15T20:14:26;5.70;99.90
6307;DHT22;3186;54.062;9.962;2023-02-15T20:16:52;5.70;99.90
6307;DHT22;3186;54.062;9.962;2023-02-15T20:19:18;5.70;99.90
6307;DHT22;3186;54.062;9.962;2023-02-15T20:21:45;5.70;99.90
6307;DHT22;3186;54.062;9.962;2023-02-15T20:24:19;5.60;99.90
6307;DHT22;3186;54.062;9.962;2023-02-15T20:26:45;5.60;99.90
6307;DHT22;3186;54.062;9.962;2023-02-15T20:29:12;5.60;99.90
6307;DHT22;3186;54.062;9.962;2023-02-15T20:31:40;5.60;99.90
6307;DHT22;3186;54.062;9.962;2023-02-15T20:34:05;5.60;99.90
6307;DHT22;3186;54.062;9.962;2023-02-15T20:36:32;5.60;99.90
6307;DHT22;3186;54.062;9.962;2023-02-15T20:39:01;5.50;99.90
6307;DHT22;3186;54.062;9.962;2023-02-15T20:41:27;5.50;99.90